Preview of NWS' New Version of Forecast
This preview is not operational and should not be used for support decisions.
Latest weather observations around

LOS GATOS (LSGC1)

Using English Units (Switch to International System of Units)
Date/ Time (PST) Wind (mph) Vis. (mi) Weather Sky Cond. Temp (°F) Rel. Humidity Wind Chill (°F) Heat Index (°F) Pressure Precip. (in)
Air Dwpt 6 hour Altimeter (inHg) Sea level (inHg) 1 hr 3 hr 6 hr
Max Min
Jan 24 00:32 NNE 5   Clear   49 29     45% 47            
Jan 23 23:32 NNE 4   Clear   49 27     42% 48            
Jan 23 22:32 N 6   Clear   49 27     43% 46            
Jan 23 21:32 NNE 4   Clear   49 33     53% 48            
Jan 23 20:32 NNE 3   Clear   48 36     62% 47            
Jan 23 19:32 NNE 4   Clear   47 35     63% 45            
Jan 23 18:32 NNE 5   Clear   48 35     60% 46            
Jan 23 17:32 N 5   Clear   49 33     54% 47            
Jan 23 16:32 N 3   Clear   55 33     43%              
Jan 23 15:32 NE 2   Clear   58 32     37%              
Jan 23 14:32 N 7   Clear   56 29     36%              
Jan 23 13:32 N 6   Clear   58 33     38%              
Jan 23 12:32 NNW 3   Clear   58 28     31%              
Jan 23 11:32 NNE 4   Clear   59 26     28%              
Jan 23 10:32 NNW 3   Clear   58 24     27%              
Jan 23 09:32 NNE 4   Clear   54 25     32%              
Jan 23 08:32 NNE 3   Clear   48 24     39% 47            
Jan 23 07:32 NNE 3   Clear   45 23     42% 44            
Jan 23 06:32 N 3   Clear   45 22     40% 44            
Jan 23 05:32 NNE 3   Clear   44 23     43% 43            
Jan 23 04:32 N 4   Clear   45 24     44% 43            
Jan 23 03:32 NNE 5   Clear   45 23     42% 42            
Jan 23 02:32 NNE 6   Clear   45 23     42% 42            
Jan 23 01:32 NNE 5   Clear   46 22     38% 44            
Jan 23 00:32 NNE 4   Clear   46 21     36% 44            
Jan 22 23:32 NNE 4   Clear   46 20     35% 44            
Jan 22 22:32 NNE 4   Clear   46 21     36% 44            
Jan 22 21:32 NNE 5   Clear   45 24     44% 42            
Jan 22 20:32 N 4   Clear   45 25     46% 43            
Jan 22 19:32 N 3   Clear   46 25     44% 45            
Jan 22 18:32 NNE 6   Clear   48 24     38% 45            
Jan 22 17:32 NNE 6   Clear   48 25     41% 45            
Jan 22 16:32 N 6   Clear   51 26     38%              
Jan 22 15:32 N 6   Clear   53 25     34%              
Jan 22 14:32 N 6   Clear   54 26     34%              
Jan 22 13:32 NNW 7   Clear   53 26     35%              
Jan 22 12:32 N 6   Clear   52 28     39%              
Jan 22 11:32 N 7   Clear   51 28     40%              
Jan 22 10:32 N 7   Clear   49 28     44% 46            
Jan 22 09:32 N 8   Clear   46 24     42% 42            
Jan 22 08:32 NNE 8   Clear   43 25     49% 38            
Jan 22 07:32 N 8   Clear   41 27     58% 36            
Jan 22 06:32 NNE 7   Clear   40 30     66% 35            
Jan 22 05:32 N 8   Clear   41 29     62% 36            
Jan 22 04:32 N 7   Clear   41 33     73% 36            
Jan 22 03:32 N 6   Clear   40 35     81% 36            
Jan 22 02:32 N 5   Clear   40 36     87% 36            
Jan 22 01:32 N 5   Clear   41 37     86% 38            
Jan 22 00:32 NNE 5   Clear   41 39     92% 38            
Jan 21 23:32 NNE 5   Clear   41 39     93% 38            
Jan 21 22:32 N 5   Clear   42 40     92% 39            
Jan 21 21:32 NNE 5   Clear   42 40     92% 39            
Jan 21 20:32 N 6   Clear   42 39     88% 38            
Jan 21 19:32 NNE 5   Clear   42 38     84% 39            
Jan 21 18:32 NNE 4   Clear   42 38     86% 40            
Jan 21 17:32 N 4   Clear   43 38     81% 41            
Jan 21 16:32 NNW 4   Clear   49 38     65% 48            
Jan 21 15:32 N 5   Clear   50 40     68%              
Jan 21 14:32 N 6   Clear   52 40     64%              
Jan 21 13:32 N 5   Clear   53 41     63%              
Jan 21 12:32 NNW 7   Clear   51 39     63%              
Jan 21 11:32 NNW 7   Clear   49 39     68% 46            
Jan 21 10:32 N 7   Clear   47 41     80% 44            
Jan 21 09:32 N 8   Clear   46 41     81% 42            
Jan 21 08:32 N 6   Clear   41 38     89% 37            
Jan 21 07:32 NNW 4   Clear   41 38     90% 38            
Jan 21 06:32 N 4   Clear   40 38     92% 37            
Jan 21 05:32 WNW 3   Clear   40 38     94% 38            
Jan 21 04:32 WNW 4   Clear   41 39     93% 38            
Jan 21 03:32 WNW 4   Clear   40 38     93% 37            
Jan 21 02:32 SW 3   Clear   40 39     95% 38            
Jan 21 01:32 NW 4   Clear   40 38     94% 37            
May 14 18:32 N 6   Clear   60 49     67%              
Notice The following observation data may not be complete
May 14 10:32 SSW 4   Clear     48      %              
May 13 14:32     Clear   58 47     66%              
May 12 16:32     Clear   62 44     52%              
May 12 12:32 S 13   Clear   60 47     61%              
May 12 02:32 N 7   Clear   59 33     38%              
May 11 09:32 N 7   Clear   64 42     44%              
Jun 12 03:32 NNE 4   Clear   46 44     94% 44            
Jun 11 23:32 SSE 5   Clear   46 44     91% 44            
Jun 11 15:32 SW 5   Clear   61 41     47%              
Jun 11 06:32 WNW 3   Clear   47 42     82% 46            
Jun 11 01:32 N 6   Clear   45 42     88% 42            
Jun 08 16:32 SSW 8   Clear   59 56     90%              
Jun 08 01:32     Clear   56 28     34%              
Jun 07 19:32 N 2   Clear   60 51     72%